createdAt,value
2018-09-15T00:01:01.554Z,18.40
2018-09-15T00:03:30.269Z,19.40
2018-09-15T00:05:58.906Z,21.40
2018-09-15T00:08:27.769Z,21.43
2018-09-15T00:10:58.095Z,18.40
2018-09-15T00:13:27.807Z,18.02
2018-09-15T00:15:57.073Z,18.77
2018-09-15T00:18:27.556Z,17.77
2018-09-15T00:21:03.020Z,18.10
2018-09-15T00:23:32.283Z,19.10
2018-09-15T00:26:06.163Z,17.77
2018-09-15T00:28:35.250Z,15.63
2018-09-15T00:31:10.652Z,19.93
2018-09-15T00:33:41.411Z,16.63
2018-09-15T00:36:11.316Z,21.15
2018-09-15T00:38:42.560Z,17.57
2018-09-15T00:41:12.675Z,16.20
2018-09-15T00:43:42.252Z,16.32
2018-09-15T00:46:11.611Z,16.90
2018-09-15T00:48:40.533Z,16.40
2018-09-15T00:51:09.507Z,14.60
2018-09-15T00:53:38.495Z,19.60
2018-09-15T00:56:07.547Z,16.20
2018-09-15T00:58:36.212Z,16.13
2018-09-15T01:01:05.198Z,16.90
2018-09-15T01:03:34.302Z,16.60
2018-09-15T01:06:04.567Z,19.57
2018-09-15T01:08:34.038Z,19.03
2018-09-15T01:11:02.972Z,17.37
2018-09-15T01:13:32.319Z,16.10
2018-09-15T01:16:01.387Z,17.10
2018-09-15T01:18:30.671Z,18.03
2018-09-15T01:21:02.300Z,16.50
2018-09-15T01:23:31.504Z,18.43
2018-09-15T01:26:00.790Z,18.07
2018-09-15T01:28:29.943Z,17.63
2018-09-15T01:30:59.172Z,19.20
2018-09-15T01:33:28.898Z,16.30
2018-09-15T01:35:58.553Z,18.30
2018-09-15T01:38:28.195Z,18.80
2018-09-15T01:40:57.411Z,17.00
2018-09-15T01:43:26.059Z,18.47
2018-09-15T01:45:54.834Z,21.17
2018-09-15T01:48:23.689Z,16.45
2018-09-15T01:50:52.818Z,16.47
2018-09-15T01:53:21.523Z,14.60
2018-09-15T01:55:50.299Z,15.23
2018-09-15T01:58:19.398Z,14.80
2018-09-15T02:00:49.211Z,16.80
2018-09-15T02:03:18.819Z,19.50
2018-09-15T02:05:48.325Z,17.60
2018-09-15T02:08:18.226Z,18.57
2018-09-15T02:10:48.676Z,15.60
2018-09-15T02:13:18.308Z,16.40
2018-09-15T02:15:48.185Z,15.63
2018-09-15T02:18:17.508Z,17.00
2018-09-15T02:20:46.612Z,17.60
2018-09-15T02:23:16.574Z,17.13
2018-09-15T02:25:45.647Z,16.47
2018-09-15T02:28:14.426Z,16.60
2018-09-15T02:30:43.370Z,15.88
2018-09-15T02:33:13.227Z,17.10
2018-09-15T02:35:43.008Z,16.67
2018-09-15T02:38:12.784Z,14.93
2018-09-15T02:40:41.588Z,21.20
2018-09-15T02:43:10.476Z,16.77
2018-09-15T02:45:39.065Z,17.10
2018-09-15T02:48:08.105Z,16.67
2018-09-15T02:50:37.992Z,14.58
2018-09-15T02:53:07.343Z,17.13
2018-09-15T02:55:37.276Z,16.60
2018-09-15T02:58:07.430Z,16.20
2018-09-15T03:00:36.505Z,19.33
2018-09-15T03:03:05.823Z,15.53
2018-09-15T03:05:35.260Z,15.50
2018-09-15T03:08:04.760Z,15.30
2018-09-15T03:10:33.890Z,14.83
2018-09-15T03:13:03.178Z,18.53
2018-09-15T03:15:32.235Z,16.40
2018-09-15T03:18:01.465Z,16.83
2018-09-15T03:20:31.078Z,16.57
2018-09-15T03:23:00.443Z,15.48
2018-09-15T03:25:29.877Z,17.40
2018-09-15T03:27:59.292Z,16.90
2018-09-15T03:30:28.559Z,18.10
2018-09-15T03:34:23.525Z,18.12
2018-09-15T03:36:52.842Z,15.47
2018-09-15T03:39:21.925Z,17.43
2018-09-15T03:41:50.664Z,16.13
2018-09-15T03:44:19.303Z,16.80
2018-09-15T03:46:48.100Z,17.90
2018-09-15T03:49:17.456Z,17.35
2018-09-15T03:51:47.006Z,20.53
2018-09-15T03:54:19.797Z,16.03
2018-09-15T03:56:48.687Z,15.93
2018-09-15T03:59:18.287Z,17.32
2018-09-15T04:01:47.593Z,18.53
2018-09-15T04:04:16.786Z,20.23
2018-09-15T04:06:46.225Z,19.55
2018-09-15T04:09:16.363Z,17.77
2018-09-15T04:11:45.426Z,16.00
2018-09-15T04:14:15.682Z,14.90
2018-09-15T04:16:44.878Z,16.10
2018-09-15T04:19:14.021Z,17.17
2018-09-15T04:21:43.076Z,15.33
2018-09-15T04:24:12.256Z,16.73
2018-09-15T04:26:41.499Z,15.57
2018-09-15T04:29:10.440Z,15.93
2018-09-15T04:31:39.427Z,19.77
2018-09-15T04:34:08.324Z,16.85
2018-09-15T04:36:37.158Z,17.17
2018-09-15T04:39:08.687Z,18.30
2018-09-15T04:41:37.494Z,16.48
2018-09-15T04:44:06.860Z,15.32
2018-09-15T04:46:36.114Z,15.77
2018-09-15T04:49:04.936Z,17.40
2018-09-15T04:51:33.528Z,17.00
2018-09-15T04:54:02.189Z,20.70
2018-09-15T04:56:31.449Z,14.23
2018-09-15T04:59:00.518Z,16.97
2018-09-15T05:01:29.358Z,16.67
2018-09-15T05:03:58.065Z,15.80
2018-09-15T05:06:27.665Z,16.20
2018-09-15T05:08:56.666Z,15.37
2018-09-15T05:11:25.672Z,15.13
2018-09-15T05:13:54.636Z,14.68
2018-09-15T05:16:23.326Z,20.10
2018-09-15T05:18:52.026Z,17.12
2018-09-15T05:21:20.828Z,15.67
2018-09-15T05:23:49.498Z,15.90
2018-09-15T05:26:18.432Z,16.93
2018-09-15T05:28:47.094Z,19.13
2018-09-15T05:31:15.702Z,15.60
2018-09-15T05:33:44.325Z,16.23
2018-09-15T05:36:12.813Z,13.77
2018-09-15T05:38:42.199Z,15.70
2018-09-15T05:41:10.874Z,16.30
2018-09-15T05:43:39.870Z,14.30
2018-09-15T05:46:08.415Z,15.77
2018-09-15T05:48:37.184Z,16.17
2018-09-15T05:51:06.791Z,17.67
2018-09-15T05:53:35.627Z,15.20
2018-09-15T05:56:04.282Z,17.40
2018-09-15T05:58:33.299Z,15.37
2018-09-15T06:01:02.867Z,16.50
2018-09-15T06:03:32.288Z,17.43
2018-09-15T06:06:01.287Z,14.93
2018-09-15T06:08:29.832Z,14.70
2018-09-15T06:10:59.081Z,16.17
2018-09-15T06:13:28.039Z,17.37
2018-09-15T06:15:57.170Z,16.40
2018-09-15T06:18:25.856Z,18.50
2018-09-15T06:20:55.829Z,16.97
2018-09-15T06:23:24.900Z,23.27
2018-09-15T06:25:53.814Z,15.70
2018-09-15T06:44:00.529Z,23.33
2018-09-15T06:46:29.426Z,19.20
2018-09-15T06:48:59.206Z,16.33
2018-09-15T06:51:28.397Z,17.73
2018-09-15T06:53:59.088Z,17.43
2018-09-15T06:56:28.980Z,18.93
2018-09-15T06:58:57.951Z,17.60
2018-09-15T07:01:27.291Z,21.10
2018-09-15T07:03:56.755Z,17.70
2018-09-15T07:06:26.664Z,19.03
2018-09-15T07:08:56.541Z,19.20
2018-09-15T07:11:26.187Z,17.37
2018-09-15T07:13:55.801Z,22.07
2018-09-15T07:16:26.105Z,19.73
2018-09-15T07:18:55.259Z,18.17
2018-09-15T07:21:24.375Z,18.23
2018-09-15T07:23:53.801Z,21.90
2018-09-15T07:26:23.170Z,21.57
2018-09-15T07:28:52.975Z,21.05
2018-09-15T07:31:22.406Z,20.13
2018-09-15T07:33:51.556Z,19.05
2018-09-15T07:36:20.814Z,20.50
2018-09-15T07:38:50.627Z,21.23
2018-09-15T07:41:21.561Z,19.98
2018-09-15T07:43:53.590Z,20.48
2018-09-15T07:46:22.670Z,25.00
2018-09-15T07:48:52.177Z,20.30
2018-09-15T07:51:21.413Z,23.27
2018-09-15T07:53:51.682Z,23.50
2018-09-15T07:56:21.180Z,23.22
2018-09-15T07:58:51.760Z,28.50
2018-09-15T08:01:21.168Z,22.62
2018-09-15T08:03:51.480Z,21.83
2018-09-15T08:06:21.330Z,23.00
2018-09-15T08:08:50.197Z,25.50
2018-09-15T08:11:19.299Z,24.60
2018-09-15T08:13:48.679Z,24.70
2018-09-15T08:16:17.770Z,27.93
2018-09-15T08:18:46.748Z,27.57
2018-09-15T08:21:15.716Z,20.50
2018-09-15T08:23:44.608Z,24.23
2018-09-15T08:26:13.733Z,25.73
2018-09-15T08:28:42.922Z,21.83
2018-09-15T08:31:13.080Z,22.40
2018-09-15T08:33:42.520Z,23.77
2018-09-15T08:36:15.914Z,20.40
2018-09-15T08:38:44.874Z,25.67
2018-09-15T08:41:13.836Z,21.20
2018-09-15T08:43:42.859Z,20.10
2018-09-15T08:46:12.205Z,21.93
2018-09-15T08:48:41.305Z,21.27
2018-09-15T08:51:10.895Z,22.77
2018-09-15T08:53:39.780Z,24.00
2018-09-15T08:56:09.403Z,18.90
2018-09-15T08:58:38.164Z,19.73
2018-09-15T09:01:07.571Z,19.67
2018-09-15T09:04:21.372Z,18.40
2018-09-15T09:06:50.410Z,19.20
2018-09-15T09:09:19.236Z,17.67
2018-09-15T09:11:47.876Z,19.32
2018-09-15T09:14:16.585Z,19.77
2018-09-15T09:16:45.876Z,18.87
2018-09-15T09:19:15.093Z,17.80
2018-09-15T09:21:44.237Z,29.43
2018-09-15T09:24:13.300Z,17.43
2018-09-15T09:26:42.859Z,16.23
2018-09-15T09:29:11.707Z,20.63
2018-09-15T09:31:40.937Z,18.80
2018-09-15T09:34:10.034Z,17.10
2018-09-15T09:36:38.930Z,19.47
2018-09-15T09:39:10.530Z,20.83
2018-09-15T09:41:39.414Z,21.23
2018-09-15T09:44:08.399Z,16.07
2018-09-15T09:46:37.193Z,16.67
2018-09-15T09:49:06.400Z,15.90
2018-09-15T09:51:35.317Z,15.60
2018-09-15T09:54:04.312Z,14.73
2018-09-15T09:56:33.046Z,14.83
2018-09-15T09:59:02.310Z,14.77
2018-09-15T10:01:36.811Z,18.87
2018-09-15T10:04:20.653Z,16.93
2018-09-15T10:06:49.758Z,14.20
2018-09-15T10:09:18.800Z,15.00
2018-09-15T10:11:47.988Z,14.83
2018-09-15T10:14:17.182Z,17.10
2018-09-15T10:16:46.175Z,16.83
2018-09-15T10:19:56.043Z,17.33
2018-09-15T10:22:24.973Z,15.32
2018-09-15T10:24:53.926Z,14.20
2018-09-15T10:27:22.852Z,17.07
2018-09-15T10:29:51.975Z,14.23
2018-09-15T10:32:21.163Z,15.83
2018-09-15T10:34:50.373Z,14.80
2018-09-15T10:37:19.609Z,12.30
2018-09-15T10:39:48.520Z,12.60
2018-09-15T10:42:17.316Z,9.27
2018-09-15T10:44:46.902Z,11.75
2018-09-15T10:47:16.430Z,11.10
2018-09-15T10:49:45.539Z,9.80
2018-09-15T10:52:14.667Z,13.43
2018-09-15T10:54:43.667Z,9.28
2018-09-15T10:57:12.708Z,8.90
2018-09-15T10:59:42.219Z,10.37
2018-09-15T11:02:14.804Z,11.40
2018-09-15T11:04:45.714Z,12.00
2018-09-15T11:10:08.353Z,10.30
2018-09-15T11:12:39.523Z,9.17
2018-09-15T11:15:25.576Z,10.30
2018-09-15T11:17:55.602Z,11.40
2018-09-15T11:20:24.356Z,12.17
2018-09-15T11:22:53.135Z,9.45
2018-09-15T11:25:22.708Z,8.67
2018-09-15T11:27:51.366Z,9.40
2018-09-15T11:30:20.028Z,10.97
2018-09-15T11:34:21.100Z,10.00
2018-09-15T11:36:49.634Z,9.40
2018-09-15T11:39:18.610Z,8.80
2018-09-15T11:41:47.590Z,9.97
2018-09-15T11:44:16.299Z,10.37
2018-09-15T11:46:44.918Z,8.93
2018-09-15T11:49:13.745Z,13.00
2018-09-15T11:51:42.463Z,11.30
2018-09-15T11:54:11.430Z,8.27
2018-09-15T11:56:40.472Z,10.80
2018-09-15T11:59:09.635Z,10.32
2018-09-15T12:01:38.440Z,11.33
2018-09-15T12:04:07.133Z,9.43
2018-09-15T12:06:35.912Z,10.60
2018-09-15T12:09:06.369Z,13.20
2018-09-15T12:11:35.199Z,10.40
2018-09-15T12:14:04.145Z,9.30
2018-09-15T12:16:34.235Z,8.30
2018-09-15T12:19:03.299Z,12.53
2018-09-15T12:21:32.142Z,11.10
2018-09-15T12:24:01.237Z,9.53
2018-09-15T12:26:30.013Z,9.03
2018-09-15T12:28:58.896Z,10.10
2018-09-15T12:31:28.898Z,10.40
2018-09-15T12:33:58.028Z,10.93
2018-09-15T12:36:26.997Z,11.23
2018-09-15T12:38:55.699Z,8.80
2018-09-15T12:41:24.236Z,11.53
2018-09-15T12:43:52.950Z,8.63
2018-09-15T12:46:21.629Z,9.13
2018-09-15T12:48:50.083Z,8.50
2018-09-15T12:51:18.834Z,12.97
2018-09-15T12:53:47.660Z,10.03
2018-09-15T12:56:16.444Z,8.23
2018-09-15T12:58:45.096Z,9.40
2018-09-15T13:01:13.676Z,9.27
2018-09-15T13:03:43.378Z,9.48
2018-09-15T13:06:12.676Z,8.50
2018-09-15T13:08:41.556Z,9.87
2018-09-15T13:11:10.287Z,10.47
2018-09-15T13:13:38.895Z,8.80
2018-09-15T13:16:07.952Z,8.90
2018-09-15T13:18:36.934Z,9.50
2018-09-15T13:21:05.706Z,9.50
2018-09-15T13:23:34.631Z,9.80
2018-09-15T13:26:03.834Z,9.80
2018-09-15T13:28:32.596Z,8.30
2018-09-15T13:31:01.384Z,11.83
2018-09-15T13:33:29.998Z,8.40
2018-09-15T13:35:58.979Z,9.40
2018-09-15T13:38:28.104Z,8.70
2018-09-15T13:40:56.735Z,8.20
2018-09-15T13:43:25.438Z,9.87
2018-09-15T13:45:54.313Z,11.20
2018-09-15T13:48:23.139Z,8.83
2018-09-15T13:50:51.992Z,7.83
2018-09-15T13:53:21.007Z,9.80
2018-09-15T13:55:49.903Z,11.37
2018-09-15T13:58:18.776Z,9.13
2018-09-15T14:00:47.356Z,11.00
2018-09-15T14:03:22.190Z,10.43
2018-09-15T14:05:51.170Z,11.27
2018-09-15T14:08:19.873Z,8.25
2018-09-15T14:10:48.943Z,10.50
2018-09-15T14:13:17.869Z,13.77
2018-09-15T14:15:46.922Z,9.60
2018-09-15T14:18:15.574Z,14.18
2018-09-15T14:20:44.288Z,9.67
2018-09-15T14:23:13.039Z,9.50
2018-09-15T14:25:42.091Z,8.30
2018-09-15T14:28:10.889Z,9.97
2018-09-15T14:30:39.479Z,8.97
2018-09-15T14:33:08.519Z,9.87
2018-09-15T14:35:37.451Z,9.13
2018-09-15T14:38:06.210Z,8.88
2018-09-15T14:40:35.044Z,8.73
2018-09-15T14:43:03.787Z,8.60
2018-09-15T14:45:32.653Z,8.30
2018-09-15T14:48:02.042Z,8.40
2018-09-15T14:50:30.817Z,9.98
2018-09-15T14:52:59.476Z,9.23
2018-09-15T14:55:28.192Z,9.77
2018-09-15T14:57:57.576Z,10.43
2018-09-15T15:00:26.793Z,8.77
2018-09-15T15:02:58.142Z,8.70
2018-09-15T15:05:27.598Z,12.17
2018-09-15T15:07:57.050Z,11.60
2018-09-15T15:10:25.932Z,11.60
2018-09-15T15:12:54.600Z,8.00
2018-09-15T15:15:23.460Z,9.07
2018-09-15T15:17:52.043Z,8.67
2018-09-15T15:20:20.619Z,8.30
2018-09-15T15:22:49.629Z,9.10
2018-09-15T15:25:18.361Z,8.63
2018-09-15T15:27:47.062Z,8.97
2018-09-15T15:30:15.693Z,8.67
2018-09-15T15:32:45.054Z,10.53
2018-09-15T15:35:13.804Z,8.00
2018-09-15T15:37:42.826Z,9.70
2018-09-15T15:40:11.706Z,8.67
2018-09-15T15:42:40.485Z,11.73
2018-09-15T15:45:09.318Z,8.60
2018-09-15T15:47:38.269Z,10.30
2018-09-15T15:50:07.323Z,10.97
2018-09-15T15:52:36.043Z,8.90
2018-09-15T15:55:04.959Z,9.58
2018-09-15T15:57:33.840Z,8.80
2018-09-15T16:00:03.607Z,7.43
2018-09-15T16:02:32.485Z,10.23
2018-09-15T16:05:01.228Z,9.20
2018-09-15T16:07:30.462Z,11.77
2018-09-15T16:09:59.821Z,8.80
2018-09-15T16:12:28.634Z,10.40
2018-09-15T16:14:57.282Z,10.17
2018-09-15T16:17:26.096Z,8.77
2018-09-15T16:19:54.948Z,9.10
2018-09-15T16:22:23.641Z,11.90
2018-09-15T16:24:52.452Z,10.90
2018-09-15T16:27:21.495Z,9.20
2018-09-15T16:29:50.531Z,9.47
2018-09-15T16:32:19.067Z,9.43
2018-09-15T16:34:47.688Z,9.03
2018-09-15T16:37:16.822Z,13.77
2018-09-15T16:39:45.737Z,8.37
2018-09-15T16:42:14.476Z,10.37
2018-09-15T16:44:43.349Z,9.10
2018-09-15T16:47:12.062Z,8.90
2018-09-15T16:49:41.212Z,9.80
2018-09-15T16:52:10.408Z,10.07
2018-09-15T16:54:39.218Z,10.30
2018-09-15T16:57:08.148Z,12.50
2018-09-15T16:59:37.216Z,16.93
2018-09-15T17:02:06.256Z,9.50
2018-09-15T17:04:35.427Z,8.33
2018-09-15T17:07:04.190Z,10.93
2018-09-15T17:09:33.106Z,11.13
2018-09-15T17:12:01.809Z,13.10
2018-09-15T17:14:30.362Z,8.53
2018-09-15T17:16:59.069Z,12.77
2018-09-15T17:19:27.869Z,11.50
2018-09-15T17:21:57.037Z,14.70
2018-09-15T17:24:25.842Z,13.90
2018-09-15T17:26:54.911Z,11.13
2018-09-15T17:29:24.509Z,8.33
2018-09-15T17:31:53.309Z,11.68
2018-09-15T17:34:26.388Z,9.53
2018-09-15T17:37:03.473Z,9.27
2018-09-15T17:39:35.522Z,10.67
2018-09-15T17:42:06.617Z,11.53
2018-09-15T17:44:37.841Z,8.23
2018-09-15T17:47:11.768Z,8.70
2018-09-15T17:49:41.895Z,8.70
2018-09-15T17:52:14.572Z,8.83
2018-09-15T17:54:44.074Z,10.40
2018-09-15T17:57:13.851Z,10.50
2018-09-15T17:59:43.861Z,9.90
2018-09-15T18:02:12.795Z,8.40
2018-09-15T18:04:41.701Z,8.70
2018-09-15T18:07:10.576Z,9.73
2018-09-15T18:09:39.622Z,8.77
2018-09-15T18:12:08.340Z,9.05
2018-09-15T18:14:38.623Z,12.23
2018-09-15T18:17:08.233Z,12.40
2018-09-15T18:19:37.419Z,10.80
2018-09-15T18:22:07.522Z,8.77
2018-09-15T18:24:36.386Z,10.30
2018-09-15T18:27:05.251Z,11.43
2018-09-15T18:29:34.423Z,11.33
2018-09-15T18:32:03.400Z,11.97
2018-09-15T18:34:32.059Z,9.00
2018-09-15T18:37:01.417Z,12.40
2018-09-15T18:39:30.032Z,11.70
2018-09-15T18:42:00.194Z,12.73
2018-09-15T18:44:30.080Z,10.45
2018-09-15T18:46:59.183Z,10.13
2018-09-15T18:49:28.073Z,11.37
2018-09-15T18:52:00.077Z,10.37
2018-09-15T18:54:29.148Z,11.93
2018-09-15T18:57:00.024Z,12.63
2018-09-15T18:59:28.732Z,10.23
2018-09-15T19:01:58.044Z,9.47
2018-09-15T19:04:27.337Z,11.30
2018-09-15T19:06:56.598Z,11.67
2018-09-15T19:09:26.003Z,13.18
2018-09-15T19:11:55.677Z,9.83
2018-09-15T19:14:24.861Z,11.03
2018-09-15T19:16:54.389Z,11.33
2018-09-15T19:19:23.880Z,9.80
2018-09-15T19:21:56.416Z,10.60
2018-09-15T19:24:25.859Z,11.90
2018-09-15T19:26:55.621Z,10.95
2018-09-15T19:29:26.899Z,10.80
2018-09-15T19:31:56.443Z,9.93
2018-09-15T19:34:25.717Z,12.40
2018-09-15T19:36:55.262Z,13.83
2018-09-15T19:39:24.854Z,11.70
2018-09-15T19:41:53.993Z,13.60
2018-09-15T19:44:25.971Z,11.97
2018-09-15T19:46:55.457Z,13.45
2018-09-15T19:49:25.761Z,14.63
2018-09-15T19:51:54.441Z,10.77
2018-09-15T19:54:23.314Z,10.83
2018-09-15T20:01:47.749Z,16.63
2018-09-15T20:04:16.643Z,18.07
2018-09-15T20:06:47.289Z,9.60
2018-09-15T20:09:19.073Z,11.30
2018-09-15T20:11:48.316Z,11.10
2018-09-15T20:14:17.334Z,12.97
2018-09-15T20:16:45.033Z,10.60
2018-09-15T20:19:13.219Z,11.48
2018-09-15T20:21:41.303Z,12.43
2018-09-15T20:24:10.532Z,12.53
2018-09-15T20:26:39.951Z,11.60
2018-09-15T20:29:09.548Z,9.50
2018-09-15T20:31:38.947Z,10.00
2018-09-15T20:34:08.124Z,13.50
2018-09-15T20:36:37.177Z,12.23
2018-09-15T20:39:09.814Z,9.93
2018-09-15T20:42:03.540Z,11.90
2018-09-15T20:44:43.143Z,10.83
2018-09-15T20:47:16.216Z,11.50
2018-09-15T20:49:45.954Z,15.00
2018-09-15T20:52:15.188Z,12.00
2018-09-15T20:54:44.208Z,9.78
2018-09-15T20:57:12.897Z,10.80
2018-09-15T20:59:42.181Z,12.37
2018-09-15T21:02:13.378Z,11.53
2018-09-15T21:04:48.185Z,12.20
2018-09-15T21:07:39.037Z,11.50
2018-09-15T21:13:40.801Z,11.25
2018-09-15T21:16:24.337Z,13.00
2018-09-15T21:19:03.568Z,10.47
2018-09-15T21:21:52.646Z,9.70
2018-09-15T21:24:25.137Z,10.63
2018-09-15T21:26:58.710Z,11.90
2018-09-15T21:29:28.950Z,10.80
2018-09-15T21:31:59.249Z,12.87
2018-09-15T21:37:21.305Z,10.83
2018-09-15T21:39:50.456Z,12.00
2018-09-15T21:42:19.230Z,11.97
2018-09-15T21:44:50.664Z,13.20
2018-09-15T21:47:19.745Z,11.40
2018-09-15T21:49:48.604Z,12.83
2018-09-15T21:52:17.893Z,11.50
2018-09-15T21:54:46.825Z,13.20
2018-09-15T21:57:16.171Z,12.13
2018-09-15T21:59:45.603Z,21.37
2018-09-15T22:02:15.011Z,11.93
2018-09-15T22:04:51.137Z,12.60
2018-09-15T22:07:20.742Z,14.33
2018-09-15T22:09:50.102Z,13.80
2018-09-15T22:12:19.366Z,11.80
2018-09-15T22:14:49.097Z,18.00
2018-09-15T22:17:18.431Z,10.47
2018-09-15T22:19:47.407Z,11.90
2018-09-15T22:22:16.404Z,11.53
2018-09-15T22:24:45.501Z,15.93
2018-09-15T22:27:14.899Z,13.23
2018-09-15T22:29:45.109Z,12.23
2018-09-15T22:32:23.728Z,12.23
2018-09-15T22:34:53.311Z,11.17
2018-09-15T22:37:25.709Z,11.13
2018-09-15T22:39:55.467Z,11.87
2018-09-15T22:42:24.894Z,11.77
2018-09-15T22:44:53.544Z,13.07
2018-09-15T22:47:22.548Z,13.63
2018-09-15T22:49:51.124Z,12.70
2018-09-15T22:52:20.117Z,14.33
2018-09-15T22:54:49.269Z,15.87
2018-09-15T22:57:18.307Z,12.40
2018-09-15T22:59:47.099Z,14.00
2018-09-15T23:02:16.321Z,12.37
2018-09-15T23:04:45.180Z,14.55
2018-09-15T23:07:14.094Z,19.20
2018-09-15T23:09:43.513Z,13.20
2018-09-15T23:12:12.834Z,10.45
2018-09-15T23:14:41.756Z,11.70
2018-09-15T23:17:10.586Z,14.00
2018-09-15T23:19:40.887Z,11.80
2018-09-15T23:22:10.275Z,14.40
2018-09-15T23:24:39.643Z,10.70
2018-09-15T23:27:08.861Z,11.90
2018-09-15T23:29:37.767Z,12.70
2018-09-15T23:32:06.676Z,10.33
2018-09-15T23:34:35.256Z,10.68
2018-09-15T23:37:04.187Z,14.67
2018-09-15T23:39:32.758Z,14.40
2018-09-15T23:42:01.448Z,16.33
2018-09-15T23:44:29.917Z,11.20
2018-09-15T23:46:58.550Z,12.30
2018-09-15T23:49:27.486Z,10.67
2018-09-15T23:51:56.486Z,12.13
2018-09-15T23:54:25.109Z,14.00
2018-09-15T23:56:54.366Z,11.33
2018-09-15T23:59:23.433Z,12.07
